createdAt,value
2018-09-04T00:00:12.615Z,15.11
2018-09-04T00:02:39.898Z,15.19
2018-09-04T00:05:07.418Z,15.22
2018-09-04T00:07:34.667Z,15.23
2018-09-04T00:10:02.492Z,15.26
2018-09-04T00:12:29.807Z,15.28
2018-09-04T00:14:57.064Z,15.30
2018-09-04T00:17:24.429Z,15.33
2018-09-04T00:22:41.831Z,15.30
2018-09-04T00:25:09.129Z,15.22
2018-09-04T00:27:36.428Z,15.14
2018-09-04T00:30:04.123Z,15.08
2018-09-04T00:32:31.703Z,15.05
2018-09-04T00:34:59.013Z,15.04
2018-09-04T00:37:26.354Z,15.03
2018-09-04T00:39:53.666Z,15.03
2018-09-04T00:42:20.934Z,15.04
2018-09-04T00:44:48.192Z,15.03
2018-09-04T00:47:15.463Z,15.05
2018-09-04T00:49:42.821Z,15.06
2018-09-04T00:52:10.166Z,15.06
2018-09-04T00:54:37.431Z,15.07
2018-09-04T00:57:04.826Z,15.10
2018-09-04T00:59:32.088Z,15.13
2018-09-04T01:01:59.505Z,15.17
2018-09-04T01:04:27.028Z,15.20
2018-09-04T01:06:54.429Z,15.22
2018-09-04T01:09:22.600Z,15.30
2018-09-04T01:11:50.087Z,15.32
2018-09-04T01:14:17.348Z,15.35
2018-09-04T01:16:44.883Z,15.36
2018-09-04T01:19:12.421Z,15.40
2018-09-04T01:21:39.723Z,15.40
2018-09-04T01:24:08.434Z,15.40
2018-09-04T01:26:35.935Z,15.39
2018-09-04T01:29:03.471Z,15.42
2018-09-04T01:31:30.741Z,15.41
2018-09-04T01:33:58.399Z,15.43
2018-09-04T01:36:25.620Z,15.43
2018-09-04T01:38:52.895Z,15.43
2018-09-04T01:41:20.122Z,15.45
2018-09-04T01:43:47.454Z,15.48
2018-09-04T01:46:14.671Z,15.49
2018-09-04T01:48:41.912Z,15.47
2018-09-04T01:51:09.257Z,15.49
2018-09-04T01:53:36.510Z,15.52
2018-09-04T01:56:03.737Z,15.54
2018-09-04T01:58:30.977Z,15.53
2018-09-04T02:00:58.198Z,15.53
2018-09-04T02:03:25.473Z,15.54
2018-09-04T02:05:52.716Z,15.54
2018-09-04T02:08:19.985Z,15.52
2018-09-04T02:10:47.284Z,15.49
2018-09-04T02:13:14.580Z,15.48
2018-09-04T02:15:41.849Z,15.43
2018-09-04T02:18:09.494Z,15.39
2018-09-04T02:20:36.875Z,15.37
2018-09-04T02:23:04.324Z,15.30
2018-09-04T02:25:31.597Z,15.21
2018-09-04T02:27:58.925Z,15.16
2018-09-04T02:30:26.194Z,15.12
2018-09-04T02:32:53.534Z,15.06
2018-09-04T02:35:20.830Z,14.99
2018-09-04T02:37:48.122Z,14.91
2018-09-04T02:40:15.401Z,14.86
2018-09-04T02:42:42.671Z,14.83
2018-09-04T02:45:09.979Z,14.78
2018-09-04T02:47:37.274Z,14.72
2018-09-04T02:50:04.651Z,14.72
2018-09-04T02:52:31.978Z,14.71
2018-09-04T02:54:59.509Z,14.68
2018-09-04T02:57:26.976Z,14.67
2018-09-04T02:59:54.217Z,14.60
2018-09-04T03:02:21.471Z,14.60
2018-09-04T03:04:48.711Z,14.59
2018-09-04T03:07:15.971Z,14.57
2018-09-04T03:09:43.287Z,14.57
2018-09-04T03:12:10.529Z,14.57
2018-09-04T03:14:37.764Z,14.58
2018-09-04T03:17:05.022Z,14.58
2018-09-04T03:19:33.759Z,14.59
2018-09-04T03:22:02.326Z,14.58
2018-09-04T03:24:30.486Z,14.63
2018-09-04T03:26:57.774Z,14.70
2018-09-04T03:29:25.042Z,14.73
2018-09-04T03:31:52.284Z,14.77
2018-09-04T03:34:19.562Z,14.79
2018-09-04T03:36:46.860Z,14.79
2018-09-04T03:39:14.334Z,14.82
2018-09-04T03:41:41.574Z,14.85
2018-09-04T03:44:08.851Z,14.84
2018-09-04T03:46:36.117Z,14.84
2018-09-04T03:49:03.409Z,14.82
2018-09-04T03:51:30.652Z,14.81
2018-09-04T03:53:57.930Z,14.80
2018-09-04T03:56:25.155Z,14.81
2018-09-04T03:58:52.419Z,14.82
2018-09-04T04:01:19.692Z,14.81
2018-09-04T04:03:46.980Z,14.79
2018-09-04T04:06:14.255Z,14.81
2018-09-04T04:08:43.728Z,14.81
2018-09-04T04:11:11.692Z,14.85
2018-09-04T04:13:38.956Z,14.84
2018-09-04T04:16:06.847Z,14.83
2018-09-04T04:18:34.150Z,14.81
2018-09-04T04:21:01.878Z,14.77
2018-09-04T04:23:29.922Z,14.74
2018-09-04T04:25:58.957Z,14.68
2018-09-04T04:28:26.376Z,14.60
2018-09-04T04:30:53.688Z,14.56
2018-09-04T04:33:21.339Z,14.51
2018-09-04T04:35:48.712Z,14.42
2018-09-04T04:38:16.140Z,14.50
2018-09-04T04:40:43.626Z,14.47
2018-09-04T04:43:11.171Z,14.48
2018-09-04T04:45:38.994Z,14.47
2018-09-04T04:48:06.487Z,14.48
2018-09-04T04:50:34.268Z,14.50
2018-09-04T04:53:01.668Z,14.49
2018-09-04T04:55:29.153Z,14.52
2018-09-04T04:58:08.766Z,14.56
2018-09-04T05:00:36.252Z,14.59
2018-09-04T05:03:03.911Z,14.61
2018-09-04T05:05:31.415Z,14.64
2018-09-04T05:07:58.818Z,14.70
2018-09-04T05:10:27.371Z,14.78
2018-09-04T05:12:55.410Z,14.82
2018-09-04T05:15:22.850Z,14.90
2018-09-04T05:17:50.243Z,14.92
2018-09-04T05:20:22.248Z,14.95
2018-09-04T05:22:49.726Z,14.99
2018-09-04T05:25:18.470Z,15.01
2018-09-04T05:27:45.995Z,15.03
2018-09-04T05:30:13.533Z,15.09
2018-09-04T05:32:45.764Z,15.13
2018-09-04T05:35:14.307Z,15.22
2018-09-04T05:37:42.504Z,15.29
2018-09-04T05:40:10.043Z,15.39
2018-09-04T05:42:43.792Z,15.53
2018-09-04T05:45:11.703Z,15.69
2018-09-04T05:47:40.124Z,15.83
2018-09-04T05:50:08.600Z,15.98
2018-09-04T05:52:36.357Z,16.13
2018-09-04T05:55:04.115Z,16.24
2018-09-04T05:57:32.196Z,16.37
2018-09-04T06:00:00.480Z,16.50
2018-09-04T06:02:29.633Z,16.62
2018-09-04T06:04:57.037Z,16.67
2018-09-04T06:07:24.539Z,16.70
2018-09-04T06:09:52.048Z,16.80
2018-09-04T06:12:19.434Z,16.91
2018-09-04T06:14:46.945Z,17.00
2018-09-04T06:17:14.475Z,17.10
2018-09-04T06:19:42.007Z,17.28
2018-09-04T06:22:09.455Z,17.47
2018-09-04T06:24:36.888Z,17.63
2018-09-04T06:27:04.851Z,17.80
2018-09-04T06:29:32.533Z,17.90
2018-09-04T06:31:59.908Z,17.98
2018-09-04T06:34:27.336Z,18.08
2018-09-04T06:36:54.811Z,18.14
2018-09-04T06:39:22.362Z,18.15
2018-09-04T06:41:49.855Z,18.21
2018-09-04T06:44:17.366Z,18.30
2018-09-04T06:46:44.802Z,18.50
2018-09-04T06:49:13.993Z,18.65
2018-09-04T06:51:42.845Z,18.66
2018-09-04T06:54:10.369Z,18.71
2018-09-04T06:56:39.912Z,18.82
2018-09-04T06:59:08.698Z,18.97
2018-09-04T07:01:36.800Z,18.97
2018-09-04T07:04:04.564Z,18.98
2018-09-04T07:06:35.862Z,19.24
2018-09-04T07:09:04.212Z,19.26
2018-09-04T07:11:31.560Z,19.35
2018-09-04T07:13:58.891Z,19.51
2018-09-04T07:16:26.286Z,19.90
2018-09-04T07:18:53.725Z,20.03
2018-09-04T07:21:21.199Z,20.15
2018-09-04T07:23:49.027Z,20.41
2018-09-04T07:26:17.391Z,20.64
2018-09-04T07:28:44.884Z,20.96
2018-09-04T07:31:13.013Z,21.14
2018-09-04T07:33:40.392Z,21.06
2018-09-04T07:36:07.856Z,20.79
2018-09-04T07:38:35.296Z,20.35
2018-09-04T07:41:02.827Z,20.10
2018-09-04T07:43:30.449Z,20.21
2018-09-04T07:45:57.872Z,20.31
2018-09-04T07:48:25.919Z,20.75
2018-09-04T07:50:53.356Z,21.14
2018-09-04T07:53:20.740Z,21.46
2018-09-04T07:55:48.141Z,21.74
2018-09-04T07:58:16.409Z,22.09
2018-09-04T08:00:43.936Z,22.33
2018-09-04T08:03:11.333Z,22.62
2018-09-04T08:05:54.304Z,22.94
2018-09-04T08:08:36.969Z,23.31
2018-09-04T08:11:20.548Z,23.52
2018-09-04T08:13:55.013Z,23.63
2018-09-04T08:16:22.488Z,23.71
2018-09-04T08:18:50.620Z,23.89
2018-09-04T08:21:18.098Z,24.23
2018-09-04T08:23:45.481Z,24.22
2018-09-04T08:26:13.514Z,24.42
2018-09-04T08:28:42.722Z,24.45
2018-09-04T08:31:11.836Z,24.54
2018-09-04T08:33:39.737Z,24.41
2018-09-04T08:36:09.125Z,24.78
2018-09-04T08:38:42.118Z,24.89
2018-09-04T08:41:09.674Z,24.82
2018-09-04T08:43:37.264Z,24.57
2018-09-04T08:46:04.955Z,24.88
2018-09-04T08:48:33.001Z,25.02
2018-09-04T08:51:10.794Z,25.49
2018-09-04T08:53:49.919Z,25.55
2018-09-04T08:56:28.626Z,25.70
2018-09-04T08:58:57.084Z,25.90
2018-09-04T09:01:24.530Z,26.02
2018-09-04T09:03:52.290Z,25.82
2018-09-04T09:06:19.534Z,25.70
2018-09-04T09:08:47.463Z,26.05
2018-09-04T09:11:15.185Z,26.20
2018-09-04T09:13:42.654Z,26.42
2018-09-04T09:16:13.549Z,26.56
2018-09-04T09:18:40.957Z,26.60
2018-09-04T09:21:08.917Z,26.33
2018-09-04T09:23:36.331Z,26.53
2018-09-04T09:26:03.863Z,26.24
2018-09-04T09:28:31.445Z,26.74
2018-09-04T09:30:58.805Z,26.95
2018-09-04T09:33:26.258Z,27.13
2018-09-04T09:35:53.642Z,27.14
2018-09-04T09:38:21.140Z,27.01
2018-09-04T09:40:49.194Z,26.69
2018-09-04T09:43:17.178Z,26.59
2018-09-04T09:45:44.511Z,26.89
2018-09-04T09:48:12.102Z,27.13
2018-09-04T09:50:40.478Z,27.40
2018-09-04T09:53:08.019Z,26.76
2018-09-04T09:55:35.304Z,27.21
2018-09-04T09:58:02.769Z,26.87
2018-09-04T10:00:32.976Z,27.12
2018-09-04T10:03:09.685Z,27.14
2018-09-04T10:05:37.397Z,27.34
2018-09-04T10:08:05.349Z,27.64
2018-09-04T10:10:32.814Z,26.86
2018-09-04T10:13:00.300Z,27.53
2018-09-04T10:15:28.949Z,27.59
2018-09-04T10:17:56.419Z,27.43
2018-09-04T10:20:23.879Z,27.22
2018-09-04T10:22:52.869Z,27.61
2018-09-04T10:25:20.231Z,28.05
2018-09-04T10:27:48.728Z,27.75
2018-09-04T10:30:17.936Z,27.61
2018-09-04T10:32:52.465Z,27.53
2018-09-04T10:35:20.931Z,27.62
2018-09-04T10:37:48.588Z,27.24
2018-09-04T10:40:21.420Z,27.54
2018-09-04T10:42:49.379Z,28.15
2018-09-04T10:45:22.393Z,28.18
2018-09-04T10:47:52.677Z,28.74
2018-09-04T10:50:21.674Z,29.07
2018-09-04T10:52:51.682Z,28.36
2018-09-04T10:55:19.236Z,28.31
2018-09-04T10:57:46.879Z,28.64
2018-09-04T11:00:15.890Z,28.69
2018-09-04T11:02:43.339Z,28.16
2018-09-04T11:05:10.774Z,27.77
2018-09-04T11:07:38.260Z,28.05
2018-09-04T11:10:06.189Z,28.08
2018-09-04T11:12:33.705Z,28.80
2018-09-04T11:15:01.282Z,28.45
2018-09-04T11:17:28.992Z,27.76
2018-09-04T11:20:03.161Z,27.46
2018-09-04T11:22:30.530Z,27.38
2018-09-04T11:24:58.228Z,27.85
2018-09-04T11:27:26.228Z,28.34
2018-09-04T11:29:53.953Z,28.27
2018-09-04T11:32:22.261Z,28.16
2018-09-04T11:34:49.943Z,28.09
2018-09-04T11:37:17.671Z,27.94
2018-09-04T11:39:45.150Z,27.84
2018-09-04T11:42:13.684Z,27.52
2018-09-04T11:44:42.851Z,27.81
2018-09-04T11:47:12.754Z,28.14
2018-09-04T11:49:40.887Z,28.29
2018-09-04T11:52:09.252Z,28.79
2018-09-04T11:54:36.947Z,28.44
2018-09-04T11:57:05.042Z,28.57
2018-09-04T11:59:37.863Z,28.85
2018-09-04T12:02:06.818Z,28.65
2018-09-04T12:04:34.666Z,28.18
2018-09-04T12:07:02.374Z,28.19
2018-09-04T12:09:29.922Z,28.75
2018-09-04T12:11:57.565Z,28.47
2018-09-04T12:14:30.751Z,27.30
2018-09-04T12:16:58.257Z,26.52
2018-09-04T12:19:27.330Z,26.30
2018-09-04T12:21:54.920Z,27.56
2018-09-04T12:24:22.518Z,27.80
2018-09-04T12:26:49.895Z,27.23
2018-09-04T12:29:17.359Z,27.16
2018-09-04T12:31:45.588Z,27.45
2018-09-04T12:34:13.016Z,26.83
2018-09-04T12:36:40.651Z,26.44
2018-09-04T12:39:08.211Z,26.34
2018-09-04T12:41:37.793Z,26.87
2018-09-04T12:44:05.336Z,27.35
2018-09-04T12:46:34.737Z,27.78
2018-09-04T12:49:02.512Z,28.20
2018-09-04T12:51:30.082Z,28.46
2018-09-04T12:53:57.608Z,28.60
2018-09-04T12:56:25.114Z,27.30
2018-09-04T12:58:52.669Z,27.29
2018-09-04T13:01:21.159Z,27.10
2018-09-04T13:03:48.528Z,27.01
2018-09-04T13:06:16.139Z,26.66
2018-09-04T13:08:43.583Z,27.23
2018-09-04T13:11:11.358Z,27.25
2018-09-04T13:13:40.564Z,26.97
2018-09-04T13:16:09.601Z,27.17
2018-09-04T13:18:38.497Z,27.27
2018-09-04T13:21:06.170Z,27.20
2018-09-04T13:23:34.794Z,26.82
2018-09-04T13:26:02.746Z,26.45
2018-09-04T13:28:31.084Z,26.54
2018-09-04T13:30:59.251Z,26.89
2018-09-04T13:33:27.528Z,27.14
2018-09-04T13:35:55.580Z,27.34
2018-09-04T13:38:26.191Z,27.51
2018-09-04T13:40:59.365Z,27.22
2018-09-04T13:43:26.814Z,27.22
2018-09-04T13:45:54.328Z,27.26
2018-09-04T13:48:27.808Z,27.31
2018-09-04T13:50:55.538Z,26.95
2018-09-04T13:53:23.882Z,27.04
2018-09-04T13:55:51.445Z,26.79
2018-09-04T13:58:19.336Z,26.95
2018-09-04T14:00:46.877Z,26.72
2018-09-04T14:03:14.285Z,26.68
2018-09-04T14:05:41.726Z,26.70
2018-09-04T14:08:09.827Z,26.62
2018-09-04T14:10:37.915Z,26.76
2018-09-04T14:13:05.635Z,26.76
2018-09-04T14:15:33.698Z,26.63
2018-09-04T14:18:01.136Z,26.46
2018-09-04T14:20:28.612Z,26.14
2018-09-04T14:22:56.799Z,26.22
2018-09-04T14:25:24.367Z,26.43
2018-09-04T14:27:52.135Z,26.45
2018-09-04T14:30:19.814Z,26.19
2018-09-04T14:32:47.893Z,26.29
2018-09-04T14:35:15.952Z,26.05
2018-09-04T14:37:43.375Z,26.09
2018-09-04T14:40:10.941Z,26.16
2018-09-04T14:42:39.022Z,26.25
2018-09-04T14:45:07.652Z,26.24
2018-09-04T14:47:37.316Z,26.24
2018-09-04T14:50:06.107Z,26.10
2018-09-04T14:52:34.401Z,26.11
2018-09-04T14:55:01.900Z,25.92
2018-09-04T14:57:32.268Z,26.08
2018-09-04T14:59:59.792Z,26.20
2018-09-04T15:02:38.873Z,26.10
2018-09-04T15:05:06.847Z,26.10
2018-09-04T15:07:36.664Z,26.17
2018-09-04T15:10:08.635Z,26.06
2018-09-04T15:12:41.003Z,26.02
2018-09-04T15:19:03.556Z,26.03
2018-09-04T15:21:36.224Z,25.84
2018-09-04T15:24:06.413Z,25.82
2018-09-04T15:26:34.024Z,25.73
2018-09-04T15:29:02.824Z,25.49
2018-09-04T15:31:30.419Z,25.63
2018-09-04T15:33:57.858Z,25.63
2018-09-04T15:36:25.425Z,25.69
2018-09-04T15:38:53.528Z,25.39
2018-09-04T15:41:21.679Z,25.38
2018-09-04T15:43:49.105Z,25.56
2018-09-04T15:46:16.630Z,25.41
2018-09-04T15:49:51.234Z,25.40
2018-09-04T15:52:18.729Z,25.44
2018-09-04T15:54:46.150Z,25.37
2018-09-04T15:57:14.127Z,25.28
2018-09-04T15:59:41.490Z,25.22
2018-09-04T16:02:09.054Z,25.21
2018-09-04T16:04:36.949Z,25.23
2018-09-04T16:07:04.394Z,25.15
2018-09-04T16:09:31.884Z,25.13
2018-09-04T16:11:59.205Z,25.04
2018-09-04T16:14:26.675Z,24.98
2018-09-04T16:16:54.937Z,24.89
2018-09-04T16:19:22.535Z,24.82
2018-09-04T16:21:50.893Z,24.86
2018-09-04T16:24:18.235Z,24.87
2018-09-04T16:29:39.147Z,24.80
2018-09-04T16:35:22.978Z,24.68
2018-09-04T16:38:01.410Z,24.61
2018-09-04T16:40:39.443Z,24.51
2018-09-04T16:43:10.599Z,24.54
2018-09-04T16:45:40.705Z,24.51
2018-09-04T16:48:08.169Z,24.47
2018-09-04T16:50:42.889Z,24.44
2018-09-04T16:55:54.935Z,24.30
2018-09-04T16:58:22.707Z,24.28
2018-09-04T17:01:02.505Z,24.21
2018-09-04T17:03:40.970Z,24.16
2018-09-04T17:06:17.191Z,24.04
2018-09-04T17:08:44.908Z,23.96
2018-09-04T17:13:50.261Z,23.87
2018-09-04T17:16:19.636Z,23.80
2018-09-04T17:18:47.990Z,23.72
2018-09-04T17:21:21.443Z,23.56
2018-09-04T17:23:49.227Z,23.38
2018-09-04T17:26:17.944Z,23.28
2018-09-04T17:28:47.716Z,23.14
2018-09-04T17:31:15.183Z,23.02
2018-09-04T17:33:45.384Z,22.89
2018-09-04T17:36:13.165Z,22.77
2018-09-04T17:38:40.636Z,22.61
2018-09-04T17:41:15.289Z,22.45
2018-09-04T17:43:46.155Z,22.35
2018-09-04T17:46:14.389Z,22.20
2018-09-04T17:48:42.920Z,22.03
2018-09-04T17:51:12.005Z,21.89
2018-09-04T17:53:41.829Z,21.75
2018-09-04T17:56:10.132Z,21.60
2018-09-04T17:58:39.267Z,21.48
2018-09-04T18:01:07.854Z,21.37
2018-09-04T18:03:35.666Z,21.16
2018-09-04T18:06:04.031Z,20.98
2018-09-04T18:08:31.663Z,20.84
2018-09-04T18:11:03.676Z,20.73
2018-09-04T18:13:31.168Z,20.54
2018-09-04T18:15:58.662Z,20.43
2018-09-04T18:18:26.050Z,20.32
2018-09-04T18:20:53.650Z,20.14
2018-09-04T18:23:21.380Z,20.00
2018-09-04T18:25:48.841Z,19.98
2018-09-04T18:28:16.340Z,19.84
2018-09-04T18:30:44.851Z,19.79
2018-09-04T18:33:12.434Z,19.69
2018-09-04T18:35:41.478Z,19.54
2018-09-04T18:38:11.418Z,19.48
2018-09-04T18:40:40.151Z,19.39
2018-09-04T18:43:08.758Z,19.38
2018-09-04T18:45:49.554Z,19.26
2018-09-04T18:48:19.070Z,19.18
2018-09-04T18:50:52.735Z,19.13
2018-09-04T18:53:20.183Z,19.09
2018-09-04T18:55:51.085Z,19.19
2018-09-04T18:58:19.028Z,19.19
2018-09-04T19:00:46.901Z,19.14
2018-09-04T19:03:15.532Z,19.05
2018-09-04T19:05:47.058Z,19.00
2018-09-04T19:08:16.627Z,18.91
2018-09-04T19:10:44.365Z,18.85
2018-09-04T19:13:11.890Z,18.78
2018-09-04T19:15:41.858Z,18.72
2018-09-04T19:18:09.998Z,18.55
2018-09-04T19:20:40.966Z,18.46
2018-09-04T19:23:10.420Z,18.38
2018-09-04T19:25:39.602Z,18.31
2018-09-04T19:28:08.561Z,18.32
2018-09-04T19:30:36.416Z,18.32
2018-09-04T19:33:05.050Z,18.36
2018-09-04T19:35:34.779Z,18.29
2018-09-04T19:38:02.176Z,18.23
2018-09-04T19:40:29.510Z,18.17
2018-09-04T19:42:56.956Z,18.07
2018-09-04T19:45:24.346Z,18.01
2018-09-04T19:47:51.772Z,17.97
2018-09-04T19:50:20.277Z,17.91
2018-09-04T19:52:47.601Z,17.86
2018-09-04T19:55:15.296Z,17.79
2018-09-04T19:57:42.716Z,17.76
2018-09-04T20:00:10.579Z,17.72
2018-09-04T20:02:38.490Z,17.63
2018-09-04T20:05:07.253Z,17.55
2018-09-04T20:07:34.609Z,17.49
2018-09-04T20:10:02.832Z,17.46
2018-09-04T20:12:30.114Z,17.44
2018-09-04T20:14:57.470Z,17.48
2018-09-04T20:17:24.912Z,17.54
2018-09-04T20:19:52.309Z,17.61
2018-09-04T20:22:19.669Z,17.72
2018-09-04T20:24:46.981Z,17.84
2018-09-04T20:27:14.435Z,17.90
2018-09-04T20:29:41.787Z,17.89
2018-09-04T20:32:09.007Z,17.83
2018-09-04T20:34:36.530Z,17.78
2018-09-04T20:37:03.865Z,17.70
2018-09-04T20:39:31.132Z,17.65
2018-09-04T20:41:58.441Z,17.57
2018-09-04T20:44:25.745Z,17.53
2018-09-04T20:46:53.040Z,17.49
2018-09-04T20:49:20.313Z,17.48
2018-09-04T20:51:48.381Z,17.43
2018-09-04T20:54:15.751Z,17.46
2018-09-04T20:56:50.070Z,17.48
2018-09-04T20:59:28.865Z,17.51
2018-09-04T21:02:07.655Z,17.49
2018-09-04T21:04:46.330Z,17.32
2018-09-04T21:09:25.077Z,17.23
2018-09-04T21:11:52.360Z,17.23
2018-09-04T21:14:19.706Z,17.20
2018-09-04T21:16:47.016Z,17.18
2018-09-04T21:19:14.341Z,17.21
2018-09-04T21:21:41.670Z,17.21
2018-09-04T21:24:08.968Z,17.20
2018-09-04T21:26:36.230Z,17.22
2018-09-04T21:29:03.701Z,17.20
2018-09-04T21:31:31.081Z,17.16
2018-09-04T21:33:58.285Z,17.06
2018-09-04T21:36:25.570Z,17.06
2018-09-04T21:38:52.838Z,17.07
2018-09-04T21:41:20.100Z,17.09
2018-09-04T21:43:47.407Z,17.04
2018-09-04T21:46:14.639Z,16.96
2018-09-04T21:48:41.861Z,16.93
2018-09-04T21:51:09.464Z,16.95
2018-09-04T21:53:36.765Z,16.88
2018-09-04T21:56:04.311Z,16.84
2018-09-04T21:58:31.542Z,16.71
2018-09-04T22:00:58.825Z,16.61
2018-09-04T22:03:35.086Z,16.55
2018-09-04T22:06:02.358Z,16.50
2018-09-04T22:08:30.448Z,16.40
2018-09-04T22:10:57.708Z,16.39
2018-09-04T22:13:25.034Z,16.21
2018-09-04T22:15:52.315Z,16.13
2018-09-04T22:18:19.585Z,16.19
2018-09-04T22:20:46.978Z,16.23
2018-09-04T22:23:14.228Z,16.23
2018-09-04T22:25:41.482Z,16.17
2018-09-04T22:28:08.906Z,16.15
2018-09-04T22:30:36.158Z,16.12
2018-09-04T22:33:03.442Z,16.07
2018-09-04T22:35:30.708Z,16.08
2018-09-04T22:37:59.003Z,16.05
2018-09-04T22:40:26.279Z,15.93
2018-09-04T22:42:53.542Z,15.82
2018-09-04T22:45:20.935Z,15.79
2018-09-04T22:47:48.256Z,15.77
2018-09-04T22:50:21.226Z,15.71
2018-09-04T22:52:48.543Z,15.67
2018-09-04T22:55:15.800Z,15.64
2018-09-04T22:57:43.907Z,15.59
2018-09-04T23:00:12.158Z,15.53
2018-09-04T23:02:40.288Z,15.45
2018-09-04T23:05:07.590Z,15.42
2018-09-04T23:07:34.872Z,15.40
2018-09-04T23:10:02.137Z,15.37
2018-09-04T23:12:29.409Z,15.34
2018-09-04T23:14:56.672Z,15.33
2018-09-04T23:17:23.972Z,15.31
2018-09-04T23:19:51.257Z,15.28
2018-09-04T23:22:18.517Z,15.23
2018-09-04T23:24:45.810Z,15.19
2018-09-04T23:27:13.103Z,15.18
2018-09-04T23:29:40.384Z,15.10
2018-09-04T23:32:07.648Z,15.07
2018-09-04T23:34:35.399Z,15.02
2018-09-04T23:37:02.650Z,14.99
2018-09-04T23:39:30.037Z,14.95
2018-09-04T23:41:57.273Z,14.99
2018-09-04T23:44:24.573Z,15.04
2018-09-04T23:46:51.928Z,15.03
2018-09-04T23:49:19.234Z,14.99
2018-09-04T23:51:46.503Z,14.93
2018-09-04T23:54:13.776Z,14.84
2018-09-04T23:56:41.015Z,14.83
2018-09-04T23:59:08.362Z,14.80
